CDT,Max TemperatureF,Mean TemperatureF,Min TemperatureF,Max Dew PointF,MeanDew PointF,Min DewpointF,Max Humidity, Mean Humidity, Min Humidity, Max Sea Level PressureIn, Mean Sea Level PressureIn, Min Sea Level PressureIn, Max VisibilityMiles, Mean VisibilityMiles, Min VisibilityMiles, Max Wind SpeedMPH, Mean Wind SpeedMPH, Max Gust SpeedMPH,PrecipitationIn, CloudCover, Events, WindDirDegrees
2013-9-1,93,82,72,74,72,69,93,76,47,29.96,29.90,29.86,10,9,5,9,2,,0.00,1,,249
2013-9-2,91,82,73,78,73,70,96,80,52,29.99,29.92,29.87,10,9,2,8,1,22,0.10,1,Rain,230
2013-9-3,91,83,75,76,74,72,94,78,55,29.99,29.94,29.88,10,10,6,9,3,,0.01,1,Rain-Thunderstorm,214
2013-9-4,93,82,72,73,71,67,93,76,41,30.08,30.01,29.96,10,9,6,8,2,,0.00,0,,40
2013-9-5,91,80,72,75,72,71,97,80,59,30.12,30.07,30.04,10,8,2,10,1,,0.01,2,Rain,128
2013-9-6,91,80,71,75,71,67,97,77,48,30.12,30.06,30.00,10,9,4,7,1,,0.01,1,,138
2013-9-7,91,80,70,72,69,65,93,73,41,30.07,30.01,29.96,10,9,6,6,1,,0.00,0,,104
2013-9-8,91,78,66,70,67,63,94,72,39,30.02,29.98,29.94,10,8,2,6,1,,0.00,0,,70
2013-9-9,93,80,69,71,68,66,93,71,44,30.06,30.01,29.96,10,8,5,6,1,,0.00,0,,139
2013-9-10,91,81,71,72,70,68,93,70,48,30.12,30.07,30.03,10,8,5,8,2,,0.00,1,Thunderstorm,127
2013-9-11,91,82,73,72,69,64,90,69,41,30.14,30.09,30.03,10,9,6,8,2,,0.00,2,,74
2013-9-12,93,81,69,71,66,60,93,67,32,30.06,30.00,29.92,10,9,5,7,1,,0.00,0,,59
2013-9-13,96,81,69,72,68,63,97,74,38,29.94,29.90,29.82,10,9,6,12,2,21,0.04,2,Thunderstorm,358
2013-9-14,90,79,69,71,63,58,91,63,36,29.99,29.94,29.89,10,10,8,8,4,,0.00,2,,54
2013-9-15,91,78,68,71,64,58,85,62,46,30.06,30.02,29.98,10,10,9,9,1,,0.00,1,,120
2013-9-16,93,80,70,72,69,66,93,70,44,30.09,30.05,30.01,10,8,5,10,3,17,0.00,0,,56
2013-9-17,93,82,72,69,65,58,91,62,31,30.10,30.04,29.98,10,9,6,9,2,,0.00,0,,72
2013-9-18,91,80,71,73,69,66,93,76,50,30.08,30.03,29.98,10,8,2,9,2,22,0.18,3,Rain-Thunderstorm,96
2013-9-19,91,80,72,73,72,69,94,81,55,30.07,30.02,29.96,10,8,0,10,3,22,0.62,3,Fog-Rain-Thunderstorm,115
2013-9-20,91,81,73,76,74,71,100,89,55,30.01,29.91,29.80,10,7,1,15,3,21,0.09,6,Rain-Thunderstorm,171
2013-9-21,78,74,69,76,71,66,100,96,84,29.83,29.79,29.76,10,5,1,15,5,25,2.83,8,Rain-Thunderstorm,82
2013-9-22,82,72,64,68,58,50,93,67,36,29.86,29.81,29.78,10,10,10,8,5,18,0.00,1,,31
2013-9-23,88,74,62,74,65,55,94,72,59,29.86,29.83,29.79,10,10,10,6,3,,0.00,4,,69
2013-9-24,84,76,69,79,73,68,100,91,77,29.87,29.83,29.78,10,7,1,13,3,25,0.19,6,Rain-Thunderstorm,169
2013-9-25,89,76,64,72,65,55,100,85,32,29.86,29.82,29.77,10,7,0,13,1,18,0.00,3,Fog,304
2013-9-26,87,74,62,66,62,59,93,71,40,29.95,29.90,29.83,10,10,10,8,1,18,0.00,0,,40
2013-9-27,86,76,68,68,67,65,96,81,51,30.04,29.99,29.94,10,6,0,7,2,,0.00,3,Fog,83
2013-9-28,84,75,66,67,63,59,93,71,41,30.09,30.04,30.00,10,9,6,5,2,,0.00,1,,101
2013-9-29,75,69,63,71,66,60,97,88,79,30.06,30.01,29.96,10,9,5,6,1,,0.04,5,Rain,26
2013-9-30,84,75,68,72,69,63,93,81,65,29.98,29.95,29.91,10,10,7,10,3,,0.00,5,Thunderstorm,152